KCRW/CRW METAR and TAF weather

Enter ICAO airport designator
Station Type Date Time Source
KCRW METAR 2018/01/24 06:54 UTC NOAA

KCRW 240654Z 32009KT 10SM -RASN FEW013 OVC024 03/00 A3008 RMK AO2 SLP188 P0000 T00280000


Station Type Date Time Source
KCRW Decoded METAR 2018/01/24 06:54 UTC NOAA

YEAGER AIRPORT, WV, United States (KCRW) 38-22N 081-36W 309M
Jan 24, 2018 - 01:54 AM EST / 2018.01.24 0654 UTC
Wind: from the NW (320 degrees) at 10 MPH (9 KT):0
Visibility: 10 mile(s):0
Sky conditions: overcast
Weather: light rain, snow
Precipitation last hour: A trace
Temperature: 37.0 F (2.8 C)
Dew Point: 32.0 F (0.0 C)
Relative Humidity: 81%
Pressure (altimeter): 30.08 in. Hg (1018 hPa)
ob: KCRW 240654Z 32009KT 10SM -RASN FEW013 OVC024 03/00 A3008 RMK AO2 SLP188 P0000 T00280000
cycle: 7

Station Type Date Time Source
KCRW TAF 2018/01/24 06:33 UTC NOAA

TAF KCRW 240531Z 2406/2506 29009G20KT P6SM -RASN SCT022 BKN030 OVC045
FM241500 27006KT P6SM OVC017
FM241600 27006KT P6SM OVC022
FM250300 26006KT P6SM OVC035


Example: see airport list